This is the latest recevied weather packets stored in our database for station/object VE4JMP. If no packets are shown the sender has not sent any weather packets the latest 10 day(s).
| Time | Temp. | Humidity | Pressure | Rain* | Wind** | Luminosity | Snow |
|---|---|---|---|---|---|---|---|
| 1777694428 | 5.56° C | 47% | 1018 hPa | 0 mm | - | - | - |
| 1777689029 | 6.67° C | 46% | 1017.9 hPa | 0 mm | - | - | - |
| 1777686627 | 9.44° C | 40% | 1018 hPa | 0 mm | - | - | - |
| 1777682420 | 14.44° C | 31% | 1018.4 hPa | 0 mm | - | - | - |
| 1777681844 | 16.11° C | 29% | 1018.5 hPa | 0 mm | - | - | - |
| 1777679422 | 17.22° C | 27% | 1018.9 hPa | 0 mm | - | - | - |
| 1777677020 | 16.67° C | 28% | 1019.3 hPa | 0 mm | - | - | - |
| 1777672217 | 13.89° C | 30% | 1020 hPa | 0 mm | - | - | - |
| 1777670429 | 14.44° C | 31% | 1020.4 hPa | 0 mm | - | - | - |
| 1777668028 | 13.89° C | 33% | 1020.5 hPa | 0 mm | - | - | - |
| 1777666818 | 13.33° C | 33% | 1020.7 hPa | 0 mm | - | - | - |
| 1777666242 | 13.89° C | 32% | 1020.9 hPa | 0 mm | - | - | - |
| 1777665031 | 14.44° C | 32% | 1020.9 hPa | 0 mm | - | - | - |
| 1777663840 | 12.78° C | 34% | 1020.7 hPa | 0 mm | - | - | - |
| 1777661419 | 13.33° C | 34% | 1021.3 hPa | 0 mm | - | - | - |
| 1777660823 | 12.22° C | 35% | 1021.4 hPa | 0 mm | - | - | - |
| 1777659631 | 12.22° C | 34% | 1021.6 hPa | 0 mm | - | - | - |
| 1777653638 | 10° C | 38% | 1022.2 hPa | 0 mm | - | - | - |
| 1777647027 | 7.78° C | 49% | 1022.8 hPa | 0 mm | - | - | - |
| 1777644625 | 7.22° C | 50% | 1022.8 hPa | 0 mm | - | - | - |
| 1777641628 | 3.33° C | 64% | 1022.8 hPa | 0 mm | - | - | - |
| 1777639822 | 0.56° C | 80% | 1022.6 hPa | 0 mm | - | - | - |
| 1777631425 | -6.67° C | 92% | 1021.9 hPa | 0 mm | - | - | - |
| 1777630829 | -6.67° C | 92% | 1021.9 hPa | 0 mm | - | - | - |
| 1777630215 | -7.22° C | 91% | 1021.9 hPa | 0 mm | - | - | - |
* Rain latest hour (hover to see other rain measurements)
** Current wind speed in m/s (hover to see current wind gust speed)